createdAt,value
2023-03-27T00:01:30.076Z,4.80
2023-03-27T00:03:59.816Z,5.00
2023-03-27T00:06:28.804Z,5.20
2023-03-27T00:08:58.007Z,5.60
2023-03-27T00:11:27.055Z,5.50
2023-03-27T00:13:56.044Z,5.90
2023-03-27T00:16:27.147Z,5.20
2023-03-27T00:18:56.749Z,6.20
2023-03-27T00:21:25.977Z,5.60
2023-03-27T00:23:55.904Z,6.00
2023-03-27T00:26:24.856Z,5.20
2023-03-27T00:28:54.231Z,6.20
2023-03-27T00:31:23.160Z,5.20
2023-03-27T00:33:52.217Z,5.40
2023-03-27T00:36:21.352Z,4.00
2023-03-27T00:38:52.557Z,5.20
2023-03-27T00:41:21.675Z,6.10
2023-03-27T00:43:54.252Z,5.30
2023-03-27T00:46:34.801Z,6.50
2023-03-27T00:49:09.102Z,4.70
2023-03-27T00:51:40.529Z,5.90
2023-03-27T00:54:10.589Z,7.50
2023-03-27T00:56:39.606Z,6.10
2023-03-27T00:59:12.464Z,6.50
2023-03-27T01:01:43.856Z,6.50
2023-03-27T01:04:13.376Z,6.50
2023-03-27T01:06:43.148Z,5.20
2023-03-27T01:09:20.402Z,5.00
2023-03-27T01:12:02.338Z,5.40
2023-03-27T01:14:37.500Z,6.50
2023-03-27T01:17:23.910Z,5.40
2023-03-27T01:20:29.707Z,5.70
2023-03-27T01:23:35.493Z,5.70
2023-03-27T01:26:53.182Z,5.90
2023-03-27T01:29:30.381Z,6.90
2023-03-27T01:32:22.596Z,5.50
2023-03-27T01:35:17.035Z,6.90
2023-03-27T01:38:29.748Z,5.60
2023-03-27T01:41:07.452Z,5.80
2023-03-27T01:43:44.548Z,5.30
2023-03-27T01:46:20.596Z,6.40
2023-03-27T01:48:56.167Z,5.80
2023-03-27T01:51:32.556Z,6.30
2023-03-27T01:54:09.546Z,7.10
2023-03-27T01:56:50.942Z,7.00
2023-03-27T01:59:23.248Z,6.20
2023-03-27T02:01:59.087Z,7.20
2023-03-27T02:07:03.273Z,6.00
2023-03-27T02:09:36.873Z,6.30
2023-03-27T02:12:11.536Z,8.30
2023-03-27T02:14:45.422Z,7.60
2023-03-27T02:17:16.507Z,10.20
2023-03-27T02:19:52.500Z,10.40
2023-03-27T02:22:37.267Z,11.00
2023-03-27T02:25:22.853Z,7.60
2023-03-27T02:28:01.006Z,11.10
2023-03-27T02:30:38.291Z,9.60
2023-03-27T02:33:16.804Z,9.10
2023-03-27T02:35:54.324Z,9.30
2023-03-27T02:38:30.715Z,10.30
2023-03-27T02:41:09.378Z,9.50
2023-03-27T02:43:43.888Z,8.50
2023-03-27T02:46:20.538Z,8.90
2023-03-27T02:48:52.628Z,9.80
2023-03-27T02:51:26.649Z,12.20
2023-03-27T02:53:59.709Z,12.20
2023-03-27T02:56:31.959Z,12.20
2023-03-27T02:59:04.498Z,13.20
2023-03-27T03:01:36.898Z,15.60
2023-03-27T03:04:09.868Z,17.00
2023-03-27T03:06:41.699Z,14.20
2023-03-27T03:09:14.205Z,16.30
2023-03-27T03:11:47.983Z,17.30
2023-03-27T03:14:20.676Z,14.10
2023-03-27T03:16:49.792Z,16.80
2023-03-27T03:19:18.825Z,15.90
2023-03-27T03:21:48.845Z,16.10
2023-03-27T03:24:18.500Z,12.90
2023-03-27T03:26:49.722Z,15.70
2023-03-27T03:29:18.943Z,17.00
2023-03-27T03:31:49.123Z,13.40
2023-03-27T03:34:22.026Z,12.60
2023-03-27T03:36:54.774Z,13.90
2023-03-27T03:39:23.939Z,13.00
2023-03-27T03:41:52.832Z,16.90
2023-03-27T03:44:22.009Z,14.10
2023-03-27T03:46:50.910Z,12.80
2023-03-27T03:49:19.955Z,12.80
2023-03-27T03:52:03.536Z,11.60
2023-03-27T03:54:33.913Z,10.00
2023-03-27T03:57:03.096Z,11.40
2023-03-27T03:59:32.514Z,9.90
2023-03-27T04:02:02.487Z,8.40
2023-03-27T04:04:32.678Z,7.90
2023-03-27T04:07:05.027Z,8.80
2023-03-27T04:09:34.116Z,8.70
2023-03-27T04:12:03.211Z,7.80
2023-03-27T04:14:32.142Z,8.10
2023-03-27T04:17:01.432Z,9.40
2023-03-27T04:19:30.312Z,8.10
2023-03-27T04:22:01.971Z,7.40
2023-03-27T04:24:31.276Z,8.40
2023-03-27T04:27:01.085Z,9.10
2023-03-27T04:29:30.263Z,7.20
2023-03-27T04:32:00.187Z,8.30
2023-03-27T04:34:29.687Z,8.10
2023-03-27T04:36:58.579Z,9.80
2023-03-27T04:39:27.939Z,7.20
2023-03-27T04:41:57.860Z,7.90
2023-03-27T04:44:26.699Z,8.50
2023-03-27T04:46:55.826Z,7.40
2023-03-27T04:49:24.792Z,9.10
2023-03-27T04:51:53.713Z,7.50
2023-03-27T04:54:22.845Z,7.60
2023-03-27T04:56:52.727Z,8.60
2023-03-27T04:59:21.892Z,6.70
2023-03-27T05:01:50.956Z,7.50
2023-03-27T05:04:19.839Z,7.90
2023-03-27T05:06:48.774Z,6.00
2023-03-27T05:09:17.778Z,6.10
2023-03-27T05:11:49.402Z,7.00
2023-03-27T05:14:19.190Z,6.50
2023-03-27T05:16:49.892Z,7.10
2023-03-27T05:19:19.504Z,6.70
2023-03-27T05:21:48.507Z,6.50
2023-03-27T05:24:17.875Z,7.50
2023-03-27T05:26:48.103Z,7.20
2023-03-27T05:29:17.019Z,6.10
2023-03-27T05:31:46.082Z,7.60
2023-03-27T05:34:15.845Z,7.10
2023-03-27T05:36:44.844Z,7.40
2023-03-27T05:39:16.124Z,8.00
2023-03-27T05:41:45.065Z,5.30
2023-03-27T05:44:13.942Z,6.50
2023-03-27T05:46:42.911Z,6.10
2023-03-27T05:49:11.945Z,5.40
2023-03-27T05:51:47.146Z,5.70
2023-03-27T05:54:16.593Z,3.90
2023-03-27T05:56:46.058Z,5.00
2023-03-27T05:59:15.026Z,5.50
2023-03-27T06:01:44.124Z,6.20
2023-03-27T06:04:13.343Z,5.60
2023-03-27T06:06:42.278Z,6.90
2023-03-27T06:09:12.414Z,4.90
2023-03-27T06:11:42.190Z,5.40
2023-03-27T06:14:11.215Z,5.90
2023-03-27T06:16:40.250Z,5.30
2023-03-27T06:19:09.279Z,6.00
2023-03-27T06:21:39.924Z,6.80
2023-03-27T06:24:10.179Z,7.50
2023-03-27T06:26:40.503Z,5.40
2023-03-27T06:29:09.961Z,4.90
2023-03-27T06:31:39.076Z,6.00
2023-03-27T06:34:09.062Z,6.80
2023-03-27T06:36:38.629Z,5.90
2023-03-27T06:39:07.790Z,6.10
2023-03-27T06:41:36.731Z,6.90
2023-03-27T06:44:06.146Z,6.30
2023-03-27T06:46:45.059Z,5.30
2023-03-27T06:49:15.272Z,4.40
2023-03-27T06:51:44.281Z,5.70
2023-03-27T06:54:14.080Z,3.80
2023-03-27T06:56:43.923Z,4.90
2023-03-27T06:59:12.899Z,4.00
2023-03-27T07:01:43.233Z,3.60
2023-03-27T07:04:12.619Z,4.20
2023-03-27T07:06:41.671Z,3.90
2023-03-27T07:09:10.691Z,3.10
2023-03-27T07:11:39.779Z,4.00
2023-03-27T07:14:08.660Z,5.00
2023-03-27T07:16:37.746Z,5.30
2023-03-27T07:19:07.068Z,5.30
2023-03-27T07:21:43.753Z,4.80
2023-03-27T07:24:12.773Z,4.90
2023-03-27T07:26:41.824Z,4.30
2023-03-27T07:29:11.341Z,5.90
2023-03-27T07:31:55.323Z,6.20
2023-03-27T07:34:26.710Z,4.90
2023-03-27T07:36:56.797Z,5.50
2023-03-27T07:39:26.109Z,4.20
2023-03-27T07:41:55.246Z,3.20
2023-03-27T07:44:24.439Z,3.40
2023-03-27T07:46:53.461Z,4.10
2023-03-27T07:49:39.281Z,4.80
2023-03-27T07:52:09.450Z,3.60
2023-03-27T07:54:38.377Z,4.10
2023-03-27T07:57:07.658Z,4.90
2023-03-27T07:59:36.755Z,3.80
2023-03-27T08:02:05.853Z,3.20
2023-03-27T08:04:35.811Z,4.80
2023-03-27T08:07:05.231Z,3.60
2023-03-27T08:09:34.110Z,3.00
2023-03-27T08:12:03.566Z,3.40
2023-03-27T08:14:32.608Z,3.90
2023-03-27T08:17:14.582Z,4.90
2023-03-27T08:19:45.756Z,3.50
2023-03-27T08:22:15.105Z,3.70
2023-03-27T08:24:44.189Z,5.00
2023-03-27T08:27:13.353Z,4.20
2023-03-27T08:29:42.879Z,5.10
2023-03-27T08:32:12.547Z,4.00
2023-03-27T08:34:41.826Z,3.70
2023-03-27T08:37:10.892Z,5.10
2023-03-27T08:39:39.921Z,4.20
2023-03-27T08:42:18.501Z,3.70
2023-03-27T08:44:52.494Z,4.00
2023-03-27T08:47:28.345Z,3.70
2023-03-27T08:50:02.617Z,3.20
2023-03-27T08:52:34.410Z,3.30
2023-03-27T08:55:14.692Z,4.70
2023-03-27T08:57:43.819Z,5.40
2023-03-27T09:00:21.187Z,4.80
2023-03-27T09:02:57.009Z,4.00
2023-03-27T09:08:09.758Z,4.90
2023-03-27T09:10:45.361Z,3.40
2023-03-27T09:13:18.769Z,4.20
2023-03-27T09:15:57.557Z,4.50
2023-03-27T09:18:31.020Z,5.40
2023-03-27T09:21:07.415Z,4.40
2023-03-27T09:23:41.897Z,4.30
2023-03-27T09:26:14.643Z,4.50
2023-03-27T09:28:50.452Z,5.40
2023-03-27T09:31:25.830Z,5.40
2023-03-27T09:33:56.480Z,4.30
2023-03-27T09:36:25.622Z,3.90
2023-03-27T09:38:58.027Z,5.00
2023-03-27T09:41:32.751Z,5.00
2023-03-27T09:44:09.796Z,4.40
2023-03-27T09:46:42.706Z,5.20
2023-03-27T09:49:15.565Z,4.90
2023-03-27T09:51:46.881Z,4.80
2023-03-27T09:54:18.433Z,6.40
2023-03-27T09:56:51.232Z,4.80
2023-03-27T09:59:26.554Z,5.50
2023-03-27T10:01:59.057Z,4.00
2023-03-27T10:04:29.611Z,4.10
2023-03-27T10:07:01.397Z,3.30
2023-03-27T10:09:33.727Z,6.80
2023-03-27T10:12:11.458Z,5.70
2023-03-27T10:14:43.012Z,4.30
2023-03-27T10:17:24.371Z,4.40
2023-03-27T10:19:58.756Z,5.00
2023-03-27T10:22:31.001Z,3.40
2023-03-27T10:25:04.170Z,3.70
2023-03-27T10:27:40.002Z,4.60
2023-03-27T10:30:26.803Z,5.00
2023-03-27T10:32:56.411Z,4.80
2023-03-27T10:35:27.954Z,4.60
2023-03-27T10:37:57.195Z,3.50
2023-03-27T10:40:29.631Z,5.20
2023-03-27T10:43:03.032Z,4.80
2023-03-27T10:45:37.850Z,4.90
2023-03-27T10:48:08.038Z,4.80
2023-03-27T10:50:45.709Z,4.40
2023-03-27T10:53:19.738Z,4.90
2023-03-27T10:55:59.676Z,3.70
2023-03-27T10:58:34.248Z,5.00
2023-03-27T11:01:11.414Z,3.90
2023-03-27T11:03:47.449Z,5.40
2023-03-27T11:06:22.654Z,4.20
2023-03-27T11:09:01.370Z,4.20
2023-03-27T11:11:36.313Z,4.10
2023-03-27T11:14:11.662Z,4.60
2023-03-27T11:16:44.176Z,4.90
2023-03-27T11:19:28.392Z,5.70
2023-03-27T11:22:02.360Z,4.90
2023-03-27T11:24:37.742Z,5.50
2023-03-27T11:27:14.349Z,4.20
2023-03-27T11:29:50.574Z,4.70
2023-03-27T11:32:29.310Z,4.60
2023-03-27T11:35:04.486Z,4.30
2023-03-27T11:37:43.091Z,3.70
2023-03-27T11:40:19.603Z,4.40
2023-03-27T11:42:48.934Z,4.10
2023-03-27T11:45:23.443Z,4.70
2023-03-27T11:48:10.608Z,4.30
2023-03-27T11:50:49.895Z,5.20
2023-03-27T11:53:39.791Z,5.60
2023-03-27T11:56:28.957Z,5.10
2023-03-27T11:59:21.649Z,5.60
2023-03-27T12:01:58.420Z,5.00
2023-03-27T12:04:38.008Z,4.80
2023-03-27T12:07:33.832Z,4.50
2023-03-27T12:10:25.435Z,5.40
2023-03-27T12:13:34.901Z,3.20
2023-03-27T12:16:24.947Z,4.10
2023-03-27T12:19:21.004Z,4.70
2023-03-27T12:22:17.491Z,3.80
2023-03-27T12:25:23.460Z,6.60
2023-03-27T12:28:05.882Z,4.60
2023-03-27T12:30:48.111Z,4.40
2023-03-27T12:33:32.943Z,3.50
2023-03-27T12:36:05.760Z,5.20
2023-03-27T12:38:39.962Z,6.60
2023-03-27T12:41:21.465Z,7.50
2023-03-27T12:43:55.813Z,4.90
2023-03-27T12:46:36.761Z,5.00
2023-03-27T12:49:46.847Z,4.00
2023-03-27T12:52:18.708Z,4.50
2023-03-27T12:55:06.237Z,4.10
2023-03-27T12:57:43.483Z,4.20
2023-03-27T13:00:24.988Z,4.90
2023-03-27T13:03:33.571Z,63.50
2023-03-27T13:06:19.931Z,18.10
2023-03-27T13:09:09.164Z,7.00
2023-03-27T13:11:49.194Z,5.40
2023-03-27T13:14:35.143Z,5.10
2023-03-27T13:19:59.944Z,5.50
2023-03-27T13:22:40.543Z,5.50
2023-03-27T13:25:30.220Z,4.00
2023-03-27T13:28:24.188Z,5.30
2023-03-27T13:30:55.240Z,5.00
2023-03-27T13:33:38.546Z,4.40
2023-03-27T13:36:14.096Z,5.50
2023-03-27T13:39:14.461Z,5.10
2023-03-27T13:42:02.479Z,4.90
2023-03-27T13:44:58.059Z,5.10
2023-03-27T13:47:47.397Z,5.10
2023-03-27T13:50:30.379Z,5.20
2023-03-27T13:53:18.463Z,4.10
2023-03-27T13:56:05.131Z,3.50
2023-03-27T13:58:57.135Z,3.20
2023-03-27T14:01:39.850Z,2.90
2023-03-27T14:04:29.814Z,3.30
2023-03-27T14:07:34.653Z,3.40
2023-03-27T14:10:24.483Z,2.80
2023-03-27T14:13:03.335Z,3.00
2023-03-27T14:15:54.430Z,3.60
2023-03-27T14:18:51.430Z,2.60
2023-03-27T14:21:35.581Z,3.90
2023-03-27T14:24:21.045Z,3.70
2023-03-27T14:26:52.616Z,2.90
2023-03-27T14:29:21.633Z,2.10
2023-03-27T14:31:50.768Z,2.70
2023-03-27T14:34:24.318Z,4.10
2023-03-27T14:36:53.408Z,3.00
2023-03-27T14:39:24.662Z,3.40
2023-03-27T14:41:56.725Z,3.70
2023-03-27T14:44:27.247Z,3.70
2023-03-27T14:47:03.195Z,3.70
2023-03-27T14:49:38.289Z,3.70
2023-03-27T14:52:09.254Z,4.70
2023-03-27T14:54:52.207Z,3.90
2023-03-27T14:57:25.687Z,3.10
2023-03-27T14:59:56.412Z,2.80
2023-03-27T15:02:29.936Z,5.20
2023-03-27T15:05:07.624Z,5.80
2023-03-27T15:07:37.286Z,5.20
2023-03-27T15:10:21.757Z,5.10
2023-03-27T15:12:50.932Z,6.00
2023-03-27T15:15:25.723Z,6.30
2023-03-27T15:17:59.131Z,4.70
2023-03-27T15:20:31.239Z,6.00
2023-03-27T15:23:05.975Z,4.60
2023-03-27T15:25:44.079Z,5.60
2023-03-27T15:28:20.251Z,4.20
2023-03-27T15:30:52.061Z,4.50
2023-03-27T15:33:33.934Z,4.00
2023-03-27T15:36:07.089Z,3.20
2023-03-27T15:38:37.620Z,4.20
2023-03-27T15:41:36.295Z,3.90
2023-03-27T15:44:08.972Z,4.10
2023-03-27T15:46:48.193Z,4.50
2023-03-27T15:49:26.545Z,14.40
2023-03-27T15:51:56.100Z,8.90
2023-03-27T15:54:31.178Z,5.80
2023-03-27T15:57:10.023Z,5.60
2023-03-27T15:59:52.998Z,6.30
2023-03-27T16:02:25.149Z,8.50
2023-03-27T16:04:57.063Z,7.10
2023-03-27T16:07:29.682Z,6.70
2023-03-27T16:10:02.005Z,8.10
2023-03-27T16:12:34.292Z,7.10
2023-03-27T16:15:07.369Z,10.00
2023-03-27T16:17:44.559Z,8.30
2023-03-27T16:20:38.814Z,7.80
2023-03-27T16:23:08.248Z,8.60
2023-03-27T16:25:37.645Z,6.70
2023-03-27T16:28:10.393Z,8.10
2023-03-27T16:30:41.356Z,7.80
2023-03-27T16:33:15.789Z,7.30
2023-03-27T16:35:46.850Z,8.60
2023-03-27T16:38:16.720Z,9.30
2023-03-27T16:40:46.098Z,7.90
2023-03-27T16:43:15.022Z,9.30
2023-03-27T16:45:45.542Z,8.40
2023-03-27T16:48:14.514Z,9.30
2023-03-27T16:50:43.581Z,9.90
2023-03-27T16:53:12.552Z,11.10
2023-03-27T16:55:41.436Z,9.30
2023-03-27T16:58:10.413Z,9.60
2023-03-27T17:00:40.176Z,10.20
2023-03-27T17:03:09.225Z,9.30
2023-03-27T17:05:38.234Z,10.40
2023-03-27T17:08:08.245Z,8.20
2023-03-27T17:10:37.293Z,10.10
2023-03-27T17:13:06.366Z,9.40
2023-03-27T17:15:37.405Z,9.40
2023-03-27T17:18:06.651Z,10.50
2023-03-27T17:20:35.664Z,11.10
2023-03-27T17:23:04.554Z,12.30
2023-03-27T17:25:33.599Z,13.70
2023-03-27T17:28:02.475Z,14.70
2023-03-27T17:30:39.761Z,14.30
2023-03-27T17:33:12.691Z,14.30
2023-03-27T17:35:42.150Z,14.30
2023-03-27T17:38:11.477Z,13.90
2023-03-27T17:40:42.048Z,12.80
2023-03-27T17:43:11.836Z,11.80
2023-03-27T17:45:41.918Z,13.50
2023-03-27T17:48:11.259Z,15.10
2023-03-27T17:50:40.556Z,12.10
2023-03-27T17:53:09.541Z,14.00
2023-03-27T17:55:39.359Z,11.20
2023-03-27T17:58:09.695Z,15.10
2023-03-27T18:00:40.992Z,14.20
2023-03-27T18:03:10.111Z,12.30
2023-03-27T18:05:40.575Z,13.10
2023-03-27T18:08:11.727Z,12.40
2023-03-27T18:10:46.236Z,12.90
2023-03-27T18:13:15.539Z,13.60
2023-03-27T18:15:45.155Z,12.90
2023-03-27T18:18:14.122Z,13.60
2023-03-27T18:20:43.037Z,14.00
2023-03-27T18:23:12.098Z,12.10
2023-03-27T18:25:42.454Z,13.90
2023-03-27T18:28:12.092Z,10.80
2023-03-27T18:30:44.238Z,11.90
2023-03-27T18:33:13.389Z,13.30
2023-03-27T18:35:42.335Z,14.30
2023-03-27T18:38:11.335Z,11.20
2023-03-27T18:40:40.295Z,10.20
2023-03-27T18:43:09.670Z,13.80
2023-03-27T18:45:39.811Z,12.40
2023-03-27T18:48:09.012Z,12.60
2023-03-27T18:50:38.055Z,10.70
2023-03-27T18:53:07.020Z,12.90
2023-03-27T18:55:35.957Z,11.70
2023-03-27T18:58:05.897Z,13.40
2023-03-27T19:00:35.015Z,13.40
2023-03-27T19:03:04.228Z,12.50
2023-03-27T19:05:33.419Z,12.70
2023-03-27T19:08:02.617Z,14.30
2023-03-27T19:10:33.774Z,12.60
2023-03-27T19:13:02.847Z,11.30
2023-03-27T19:15:32.712Z,12.70
2023-03-27T19:18:01.947Z,12.50
2023-03-27T19:20:31.021Z,12.00
2023-03-27T19:22:59.902Z,11.50
2023-03-27T19:25:29.035Z,12.20
2023-03-27T19:27:58.138Z,11.90
2023-03-27T19:30:28.053Z,11.60
2023-03-27T19:32:57.827Z,11.10
2023-03-27T19:35:27.236Z,13.90
2023-03-27T19:37:57.015Z,10.20
2023-03-27T19:40:26.128Z,11.80
2023-03-27T19:42:55.460Z,11.60
2023-03-27T19:45:24.512Z,12.80
2023-03-27T19:47:53.482Z,11.90
2023-03-27T19:50:22.762Z,11.40
2023-03-27T19:53:05.472Z,10.80
2023-03-27T19:55:38.584Z,11.90
2023-03-27T19:58:07.883Z,10.50
2023-03-27T20:00:38.350Z,9.80
2023-03-27T20:03:09.494Z,9.50
2023-03-27T20:05:46.142Z,9.30
2023-03-27T20:08:16.005Z,10.50
2023-03-27T20:10:47.058Z,10.20
2023-03-27T20:13:17.242Z,8.70
2023-03-27T20:15:49.622Z,10.40
2023-03-27T20:18:19.384Z,9.40
2023-03-27T20:20:49.581Z,10.00
2023-03-27T20:23:18.918Z,9.60
2023-03-27T20:25:51.147Z,9.40
2023-03-27T20:28:20.232Z,8.30
2023-03-27T20:30:49.177Z,9.20
2023-03-27T20:33:18.255Z,9.40
2023-03-27T20:35:47.312Z,8.00
2023-03-27T20:38:16.370Z,9.80
2023-03-27T20:40:53.138Z,8.00
2023-03-27T20:43:22.991Z,9.20
2023-03-27T20:45:54.252Z,8.60
2023-03-27T20:48:23.174Z,9.60
2023-03-27T20:50:54.818Z,10.70
2023-03-27T20:53:29.340Z,9.30
2023-03-27T20:56:00.902Z,8.50
2023-03-27T20:58:32.050Z,9.30
2023-03-27T21:01:04.345Z,10.60
2023-03-27T21:03:36.172Z,10.20
2023-03-27T21:06:07.629Z,9.90
2023-03-27T21:08:37.013Z,10.00
2023-03-27T21:11:06.727Z,10.50
2023-03-27T21:13:36.034Z,9.00
2023-03-27T21:16:06.139Z,7.10
2023-03-27T21:18:35.451Z,8.20
2023-03-27T21:21:05.529Z,8.50
2023-03-27T21:23:35.182Z,9.80
2023-03-27T21:26:04.450Z,8.40
2023-03-27T21:28:33.713Z,8.40
2023-03-27T21:31:07.528Z,8.70
2023-03-27T21:33:37.721Z,7.90
2023-03-27T21:36:09.304Z,4.80
2023-03-27T21:38:38.476Z,6.30
2023-03-27T21:41:08.278Z,6.30
2023-03-27T21:43:37.203Z,6.60
2023-03-27T21:46:06.935Z,7.20
2023-03-27T21:48:35.960Z,5.70
2023-03-27T21:51:07.693Z,3.70
2023-03-27T21:53:37.137Z,5.40
2023-03-27T21:56:08.162Z,6.20
2023-03-27T21:58:37.608Z,4.40
2023-03-27T22:01:08.029Z,4.70
2023-03-27T22:03:37.197Z,4.70
2023-03-27T22:06:12.316Z,5.70
2023-03-27T22:08:43.273Z,3.10
2023-03-27T22:11:12.952Z,5.30
2023-03-27T22:13:42.773Z,5.40
2023-03-27T22:16:14.006Z,4.90
2023-03-27T22:18:43.787Z,5.10
2023-03-27T22:21:15.482Z,4.50
2023-03-27T22:23:45.318Z,4.90
2023-03-27T22:26:14.282Z,4.30
2023-03-27T22:28:43.222Z,4.70
2023-03-27T22:31:12.490Z,4.10
2023-03-27T22:33:41.664Z,3.80
2023-03-27T22:36:12.220Z,3.80
2023-03-27T22:38:41.530Z,4.10
2023-03-27T22:41:12.616Z,4.00
2023-03-27T22:43:42.090Z,4.30
2023-03-27T22:46:13.997Z,3.20
2023-03-27T22:48:43.806Z,2.90
2023-03-27T22:51:13.918Z,2.50
2023-03-27T22:53:42.915Z,3.20
2023-03-27T22:56:11.960Z,3.00
2023-03-27T22:58:41.193Z,3.10
2023-03-27T23:01:10.256Z,2.30
2023-03-27T23:03:39.584Z,3.00
2023-03-27T23:06:15.858Z,2.60
2023-03-27T23:08:44.916Z,2.60
2023-03-27T23:11:15.225Z,2.40
2023-03-27T23:13:44.506Z,3.10
2023-03-27T23:16:13.547Z,2.90
2023-03-27T23:18:42.424Z,1.50
2023-03-27T23:21:13.125Z,2.60
2023-03-27T23:23:42.133Z,3.20
2023-03-27T23:26:12.355Z,3.80
2023-03-27T23:28:42.391Z,2.40
2023-03-27T23:31:13.841Z,2.90
2023-03-27T23:33:44.562Z,3.00
2023-03-27T23:36:15.015Z,3.20
2023-03-27T23:38:44.310Z,3.40
2023-03-27T23:41:14.824Z,3.60
2023-03-27T23:43:44.110Z,3.40
2023-03-27T23:46:13.771Z,4.10
2023-03-27T23:48:44.396Z,3.10
2023-03-27T23:51:15.523Z,2.70
2023-03-27T23:53:44.830Z,2.90
2023-03-27T23:56:13.703Z,4.00
2023-03-27T23:58:42.653Z,2.70
